createdAt,value
2022-09-15T00:03:28.442Z,2.08
2022-09-15T00:05:55.501Z,1.88
2022-09-15T00:08:23.399Z,1.85
2022-09-15T00:10:52.955Z,1.95
2022-09-15T00:13:20.504Z,1.98
2022-09-15T00:15:47.489Z,1.88
2022-09-15T00:18:14.188Z,1.70
2022-09-15T00:20:45.013Z,1.98
2022-09-15T00:23:13.222Z,2.28
2022-09-15T00:25:48.849Z,1.80
2022-09-15T00:28:17.201Z,2.10
2022-09-15T00:30:50.285Z,1.77
2022-09-15T00:33:18.230Z,1.75
2022-09-15T00:35:47.112Z,2.25
2022-09-15T00:38:15.170Z,2.22
2022-09-15T00:40:50.387Z,1.88
2022-09-15T00:43:18.991Z,2.42
2022-09-15T00:45:45.805Z,2.30
2022-09-15T00:48:17.310Z,2.63
2022-09-15T00:50:48.921Z,2.13
2022-09-15T00:53:17.457Z,2.30
2022-09-15T00:55:49.709Z,2.10
2022-09-15T00:58:39.228Z,2.33
2022-09-15T01:01:08.323Z,2.83
2022-09-15T01:03:36.718Z,2.65
2022-09-15T01:06:20.062Z,2.30
2022-09-15T01:08:57.036Z,2.17
2022-09-15T01:11:23.738Z,2.67
2022-09-15T01:16:31.572Z,2.72
2022-09-15T01:19:36.420Z,2.97
2022-09-15T01:22:15.094Z,3.05
2022-09-15T01:24:48.308Z,2.60
2022-09-15T01:27:48.442Z,3.10
2022-09-15T01:30:23.146Z,3.97
2022-09-15T01:33:11.178Z,4.22
2022-09-15T01:36:10.529Z,4.25
2022-09-15T01:38:49.319Z,4.90
2022-09-15T01:41:17.479Z,5.30
2022-09-15T01:44:02.800Z,5.22
2022-09-15T01:46:34.836Z,4.53
2022-09-15T01:49:03.499Z,4.20
2022-09-15T01:51:31.851Z,4.13
2022-09-15T01:54:02.065Z,4.25
2022-09-15T01:56:28.811Z,3.78
2022-09-15T01:58:55.385Z,4.57
2022-09-15T02:04:01.110Z,3.65
2022-09-15T02:06:39.673Z,3.75
2022-09-15T02:09:17.886Z,3.20
2022-09-15T02:12:08.048Z,3.90
2022-09-15T02:14:55.429Z,2.83
2022-09-15T02:17:24.010Z,3.00
2022-09-15T02:19:56.903Z,3.38
2022-09-15T02:22:30.407Z,3.90
2022-09-15T02:25:05.010Z,4.70
2022-09-15T02:27:40.002Z,4.22
2022-09-15T02:30:11.703Z,4.53
2022-09-15T02:32:47.284Z,4.30
2022-09-15T02:35:16.660Z,4.80
2022-09-15T02:37:43.390Z,4.68
2022-09-15T02:40:11.053Z,5.05
2022-09-15T02:42:38.407Z,4.68
2022-09-15T02:45:06.076Z,4.20
2022-09-15T02:47:32.527Z,4.35
2022-09-15T02:49:58.993Z,4.35
2022-09-15T02:52:26.155Z,5.10
2022-09-15T02:54:53.459Z,4.75
2022-09-15T02:57:19.920Z,4.93
2022-09-15T03:00:05.063Z,4.57
2022-09-15T03:02:32.251Z,3.83
2022-09-15T03:04:58.773Z,4.10
2022-09-15T03:07:25.254Z,4.40
2022-09-15T03:12:18.123Z,4.90
2022-09-15T03:14:44.576Z,4.80
2022-09-15T03:17:11.018Z,3.95
2022-09-15T03:19:37.720Z,4.00
2022-09-15T03:22:04.195Z,3.50
2022-09-15T03:24:30.675Z,3.90
2022-09-15T03:26:57.109Z,3.78
2022-09-15T03:29:23.660Z,3.70
2022-09-15T03:34:16.754Z,3.42
2022-09-15T03:39:11.896Z,4.07
2022-09-15T03:41:38.844Z,4.90
2022-09-15T03:44:05.328Z,4.43
2022-09-15T03:46:31.797Z,3.78
2022-09-15T03:48:58.280Z,4.18
2022-09-15T03:53:51.736Z,4.80
2022-09-15T03:56:23.518Z,4.32
2022-09-15T03:58:51.299Z,3.88
2022-09-15T04:01:21.085Z,3.72
2022-09-15T04:03:51.030Z,4.57
2022-09-15T04:06:21.709Z,4.40
2022-09-15T04:08:49.458Z,4.07
2022-09-15T04:11:17.016Z,3.80
2022-09-15T04:13:44.119Z,3.80
2022-09-15T04:16:19.752Z,4.15
2022-09-15T04:18:46.502Z,3.45
2022-09-15T04:21:15.905Z,4.78
2022-09-15T04:23:43.535Z,3.90
2022-09-15T04:26:23.579Z,4.28
2022-09-15T04:28:50.107Z,3.88
2022-09-15T04:33:44.838Z,4.07
2022-09-15T04:36:15.428Z,4.28
2022-09-15T04:38:42.594Z,3.90
2022-09-15T04:41:10.036Z,3.78
2022-09-15T04:43:36.974Z,3.72
2022-09-15T04:46:03.605Z,3.72
2022-09-15T04:51:27.214Z,3.80
2022-09-15T04:53:53.980Z,3.90
2022-09-15T04:56:24.380Z,3.67
2022-09-15T04:58:59.685Z,2.85
2022-09-15T05:01:32.033Z,4.20
2022-09-15T05:03:58.995Z,3.40
2022-09-15T05:06:27.994Z,3.15
2022-09-15T05:08:56.905Z,3.25
2022-09-15T05:11:25.092Z,2.85
2022-09-15T05:13:51.830Z,3.28
2022-09-15T05:16:26.619Z,3.35
2022-09-15T05:18:55.718Z,2.58
2022-09-15T05:21:23.386Z,3.25
2022-09-15T05:23:51.832Z,3.80
2022-09-15T05:26:28.977Z,3.22
2022-09-15T05:28:56.845Z,2.72
2022-09-15T05:31:26.838Z,3.40
2022-09-15T05:33:54.062Z,2.83
2022-09-15T05:36:25.026Z,2.53
2022-09-15T05:38:53.501Z,3.45
2022-09-15T05:41:20.810Z,2.97
2022-09-15T05:43:48.601Z,2.85
2022-09-15T05:46:17.380Z,3.13
2022-09-15T05:48:45.092Z,2.63
2022-09-15T05:51:12.215Z,2.70
2022-09-15T05:53:39.017Z,2.50
2022-09-15T05:56:09.381Z,2.95
2022-09-15T05:58:35.907Z,2.45
2022-09-15T06:03:34.089Z,2.80
2022-09-15T06:06:04.634Z,2.58
2022-09-15T06:08:33.018Z,2.30
2022-09-15T06:11:04.592Z,2.53
2022-09-15T06:13:31.032Z,2.97
2022-09-15T06:16:09.569Z,2.65
2022-09-15T06:18:37.422Z,2.90
2022-09-15T06:21:09.453Z,2.20
2022-09-15T06:23:37.012Z,2.60
2022-09-15T06:26:09.294Z,2.90
2022-09-15T06:28:35.993Z,2.47
2022-09-15T06:31:02.677Z,2.63
2022-09-15T06:33:29.139Z,3.20
2022-09-15T06:35:55.804Z,2.40
2022-09-15T06:38:22.368Z,2.53
2022-09-15T06:43:22.648Z,2.58
2022-09-15T06:45:49.322Z,2.88
2022-09-15T06:48:24.509Z,2.55
2022-09-15T06:50:55.396Z,3.03
2022-09-15T06:53:22.218Z,2.85
2022-09-15T06:55:48.843Z,2.28
2022-09-15T06:58:15.384Z,2.63
2022-09-15T07:00:42.976Z,2.20
2022-09-15T07:03:09.585Z,2.72
2022-09-15T07:05:36.275Z,2.92
2022-09-15T07:10:29.434Z,2.58
2022-09-15T07:15:24.860Z,2.58
2022-09-15T07:17:51.292Z,2.20
2022-09-15T07:20:17.770Z,2.25
2022-09-15T07:22:44.250Z,1.83
2022-09-15T07:27:37.271Z,2.25
2022-09-15T07:30:08.431Z,2.80
2022-09-15T07:32:35.128Z,2.00
2022-09-15T07:37:28.953Z,2.45
2022-09-15T07:39:55.531Z,2.30
2022-09-15T07:44:48.377Z,2.42
2022-09-15T07:47:14.815Z,2.83
2022-09-15T07:49:42.152Z,2.78
2022-09-15T07:52:08.784Z,2.03
2022-09-15T07:54:35.609Z,2.15
2022-09-15T07:57:02.192Z,2.25
2022-09-15T08:01:55.187Z,2.13
2022-09-15T08:04:21.657Z,3.38
2022-09-15T08:06:48.158Z,3.10
2022-09-15T08:11:44.086Z,2.78
2022-09-15T08:14:10.953Z,2.42
2022-09-15T08:16:38.477Z,3.03
2022-09-15T08:19:05.351Z,2.38
2022-09-15T08:21:31.865Z,2.55
2022-09-15T08:26:27.263Z,2.38
2022-09-15T08:28:54.057Z,2.45
2022-09-15T08:31:21.109Z,2.50
2022-09-15T08:33:49.754Z,2.20
2022-09-15T08:36:16.268Z,2.17
2022-09-15T08:41:33.893Z,2.60
2022-09-15T08:44:37.903Z,2.40
2022-09-15T08:47:11.602Z,2.83
2022-09-15T08:50:01.036Z,2.53
2022-09-15T08:52:37.856Z,2.33
2022-09-15T08:55:16.554Z,2.22
2022-09-15T08:57:43.027Z,2.53
2022-09-15T09:00:16.706Z,2.78
2022-09-15T09:03:09.637Z,2.30
2022-09-15T09:05:54.107Z,1.98
2022-09-15T09:08:40.767Z,2.50
2022-09-15T09:11:46.300Z,3.13
2022-09-15T09:14:36.371Z,1.90
2022-09-15T09:17:16.891Z,2.38
2022-09-15T09:20:02.141Z,2.17
2022-09-15T09:22:35.823Z,2.50
2022-09-15T09:25:21.151Z,2.58
2022-09-15T09:27:50.755Z,2.42
2022-09-15T09:30:23.121Z,2.50
2022-09-15T09:32:52.755Z,2.22
2022-09-15T09:35:41.770Z,2.20
2022-09-15T09:38:20.599Z,2.20
2022-09-15T09:40:48.724Z,2.25
2022-09-15T09:43:15.507Z,2.28
2022-09-15T09:45:41.927Z,1.70
2022-09-15T09:48:20.031Z,1.85
2022-09-15T09:50:47.368Z,1.27
2022-09-15T09:53:28.675Z,1.35
2022-09-15T09:56:15.880Z,1.20
2022-09-15T09:58:42.551Z,0.80
2022-09-15T10:01:14.788Z,0.73
2022-09-15T10:03:45.216Z,0.60
2022-09-15T10:06:22.295Z,0.98
2022-09-15T10:11:20.623Z,0.60
2022-09-15T10:13:52.970Z,0.57
2022-09-15T10:16:20.625Z,0.93
2022-09-15T10:18:53.992Z,0.65
2022-09-15T10:21:24.773Z,0.90
2022-09-15T10:23:51.780Z,0.65
2022-09-15T10:26:22.082Z,0.88
2022-09-15T10:29:12.706Z,0.60
2022-09-15T10:31:40.414Z,0.60
2022-09-15T10:34:25.596Z,0.80
2022-09-15T10:37:20.018Z,0.50
2022-09-15T10:39:52.146Z,0.80
2022-09-15T10:42:47.521Z,0.68
2022-09-15T10:45:19.549Z,0.57
2022-09-15T10:48:03.152Z,0.50
2022-09-15T10:50:39.472Z,0.60
2022-09-15T10:53:23.195Z,0.50
2022-09-15T10:56:10.819Z,0.45
2022-09-15T11:01:29.501Z,0.70
2022-09-15T11:04:22.042Z,0.45
2022-09-15T11:06:57.640Z,0.40
2022-09-15T11:09:43.821Z,0.50
2022-09-15T11:12:45.496Z,0.50
2022-09-15T11:15:35.009Z,0.50
2022-09-15T11:18:08.580Z,0.57
2022-09-15T11:20:56.948Z,0.60
2022-09-15T11:23:44.030Z,0.73
2022-09-15T11:26:18.692Z,0.70
2022-09-15T11:28:50.270Z,0.50
2022-09-15T11:31:22.513Z,0.57
2022-09-15T11:34:15.499Z,0.75
2022-09-15T11:36:51.851Z,0.70
2022-09-15T11:39:24.058Z,0.70
2022-09-15T11:41:56.594Z,0.75
2022-09-15T11:44:30.547Z,1.08
2022-09-15T11:47:03.015Z,0.70
2022-09-15T11:49:58.204Z,0.90
2022-09-15T11:52:46.604Z,0.93
2022-09-15T11:55:38.230Z,0.98
2022-09-15T11:58:22.254Z,0.60
2022-09-15T12:01:03.564Z,0.90
2022-09-15T12:03:50.031Z,0.88
2022-09-15T12:06:28.436Z,0.68
2022-09-15T12:09:06.362Z,0.70
2022-09-15T12:11:38.180Z,0.75
2022-09-15T12:14:05.708Z,0.90
2022-09-15T12:16:34.488Z,0.70
2022-09-15T12:19:22.532Z,0.90
2022-09-15T12:21:59.339Z,0.82
2022-09-15T12:24:38.579Z,0.60
2022-09-15T12:27:05.242Z,1.00
2022-09-15T12:32:20.226Z,0.90
2022-09-15T12:35:16.376Z,0.95
2022-09-15T12:37:48.929Z,0.73
2022-09-15T12:40:32.742Z,0.70
2022-09-15T12:43:03.598Z,1.00
2022-09-15T12:45:35.823Z,0.90
2022-09-15T12:48:12.335Z,0.75
2022-09-15T12:50:44.107Z,0.70
2022-09-15T12:53:28.024Z,1.13
2022-09-15T12:56:07.436Z,0.90
2022-09-15T12:58:46.081Z,1.10
2022-09-15T13:01:19.108Z,0.90
2022-09-15T13:03:45.819Z,1.23
2022-09-15T13:06:20.292Z,1.00
2022-09-15T13:08:49.643Z,0.77
2022-09-15T13:11:37.131Z,0.93
2022-09-15T13:16:37.068Z,1.20
2022-09-15T13:19:11.958Z,0.98
2022-09-15T13:21:42.031Z,0.93
2022-09-15T13:24:19.122Z,1.00
2022-09-15T13:29:17.960Z,1.13
2022-09-15T13:32:17.496Z,1.60
2022-09-15T13:35:07.199Z,1.20
2022-09-15T13:38:24.990Z,1.35
2022-09-15T13:41:09.078Z,1.45
2022-09-15T13:43:59.631Z,1.40
2022-09-15T13:46:50.513Z,1.33
2022-09-15T13:49:26.158Z,1.35
2022-09-15T13:52:00.907Z,1.42
2022-09-15T13:54:27.396Z,1.45
2022-09-15T13:56:54.243Z,1.60
2022-09-15T13:59:29.499Z,1.45
2022-09-15T14:01:58.844Z,1.50
2022-09-15T14:04:30.779Z,1.15
2022-09-15T14:07:01.454Z,1.33
2022-09-15T14:09:33.310Z,1.33
2022-09-15T14:12:05.054Z,1.30
2022-09-15T14:14:47.962Z,1.27
2022-09-15T14:17:23.964Z,1.95
2022-09-15T14:19:55.963Z,1.92
2022-09-15T14:22:31.788Z,1.75
2022-09-15T14:25:00.395Z,2.05
2022-09-15T14:27:31.972Z,2.40
2022-09-15T14:30:02.638Z,3.40
2022-09-15T14:32:34.196Z,2.58
2022-09-15T14:35:06.474Z,2.60
2022-09-15T14:37:34.774Z,3.35
2022-09-15T14:40:16.892Z,2.42
2022-09-15T14:42:43.807Z,3.10
2022-09-15T14:48:02.326Z,2.75
2022-09-15T14:50:33.095Z,2.80
2022-09-15T14:53:17.335Z,3.30
2022-09-15T14:55:53.371Z,2.35
2022-09-15T14:58:25.295Z,2.60
2022-09-15T15:01:00.276Z,2.35
2022-09-15T15:03:56.121Z,2.50
2022-09-15T15:06:35.766Z,3.05
2022-09-15T15:09:14.481Z,2.70
2022-09-15T15:11:41.870Z,3.28
2022-09-15T15:14:11.389Z,4.25
2022-09-15T15:16:50.361Z,3.55
2022-09-15T15:19:35.279Z,3.58
2022-09-15T15:22:11.871Z,3.28
2022-09-15T15:24:44.392Z,3.60
2022-09-15T15:27:31.893Z,3.30
2022-09-15T15:30:19.325Z,3.50
2022-09-15T15:32:45.914Z,3.38
2022-09-15T15:37:47.156Z,3.55
2022-09-15T15:40:23.052Z,3.47
2022-09-15T15:42:59.258Z,3.75
2022-09-15T15:47:54.376Z,4.20
2022-09-15T15:50:24.436Z,4.45
2022-09-15T15:52:52.506Z,4.68
2022-09-15T15:55:21.791Z,4.40
2022-09-15T15:57:51.280Z,4.63
2022-09-15T16:00:57.023Z,4.75
2022-09-15T16:03:24.688Z,5.10
2022-09-15T16:05:53.757Z,3.78
2022-09-15T16:08:32.148Z,4.80
2022-09-15T16:11:01.398Z,4.80
2022-09-15T16:13:28.659Z,5.28
2022-09-15T16:15:57.826Z,3.78
2022-09-15T16:18:24.792Z,4.57
2022-09-15T16:20:51.657Z,3.72
2022-09-15T16:23:20.767Z,4.22
2022-09-15T16:26:04.133Z,4.55
2022-09-15T16:28:30.573Z,4.78
2022-09-15T16:30:58.096Z,5.30
2022-09-15T16:33:25.500Z,4.38
2022-09-15T16:36:03.728Z,4.05
2022-09-15T16:38:30.352Z,4.47
2022-09-15T16:43:23.407Z,4.55
2022-09-15T16:48:17.727Z,5.35
2022-09-15T16:50:56.044Z,4.35
2022-09-15T16:53:32.612Z,5.25
2022-09-15T16:55:59.207Z,5.30
2022-09-15T17:00:52.836Z,4.60
2022-09-15T17:03:22.845Z,4.95
2022-09-15T17:05:54.582Z,4.13
2022-09-15T17:08:23.683Z,4.70
2022-09-15T17:10:50.768Z,4.65
2022-09-15T17:13:20.839Z,5.65
2022-09-15T17:15:50.440Z,4.70
2022-09-15T17:18:17.232Z,4.78
2022-09-15T17:20:45.995Z,4.57
2022-09-15T17:23:20.062Z,4.55
2022-09-15T17:25:53.125Z,4.60
2022-09-15T17:28:25.554Z,4.50
2022-09-15T17:30:57.114Z,4.00
2022-09-15T17:33:24.289Z,4.40
2022-09-15T17:35:50.915Z,5.35
2022-09-15T17:40:48.513Z,18.38
2022-09-15T17:43:17.714Z,21.23
2022-09-15T17:45:44.595Z,16.98
2022-09-15T17:48:11.838Z,9.07
2022-09-15T17:50:39.935Z,5.28
2022-09-15T17:53:13.368Z,4.75
2022-09-15T17:55:40.323Z,4.47
2022-09-15T17:58:07.666Z,5.00
2022-09-15T18:00:36.932Z,5.32
2022-09-15T18:03:30.810Z,4.63
2022-09-15T18:05:59.779Z,4.00
2022-09-15T18:08:27.381Z,5.15
2022-09-15T18:10:54.007Z,4.78
2022-09-15T18:13:27.199Z,5.85
2022-09-15T18:15:54.488Z,5.60
2022-09-15T18:18:24.747Z,5.68
2022-09-15T18:20:53.259Z,4.82
2022-09-15T18:23:22.047Z,6.05
2022-09-15T18:25:49.683Z,5.82
2022-09-15T18:28:17.814Z,5.60
2022-09-15T18:30:47.232Z,4.55
2022-09-15T18:33:18.660Z,7.05
2022-09-15T18:35:46.118Z,6.43
2022-09-15T18:38:12.576Z,5.70
2022-09-15T18:40:47.511Z,6.85
2022-09-15T18:43:14.020Z,6.15
2022-09-15T18:45:42.527Z,5.18
2022-09-15T18:48:12.654Z,5.10
2022-09-15T18:50:40.622Z,4.53
2022-09-15T18:53:07.560Z,5.00
2022-09-15T18:55:34.027Z,5.38
2022-09-15T18:58:01.281Z,5.35
2022-09-15T19:00:28.866Z,4.82
2022-09-15T19:02:57.493Z,4.82
2022-09-15T19:05:24.090Z,5.00
2022-09-15T19:10:17.353Z,6.80
2022-09-15T19:12:44.262Z,5.55
2022-09-15T19:15:13.088Z,6.05
2022-09-15T19:17:40.980Z,5.47
2022-09-15T19:20:09.888Z,5.90
2022-09-15T19:22:36.788Z,7.32
2022-09-15T19:25:04.679Z,6.32
2022-09-15T19:27:31.200Z,6.90
2022-09-15T19:29:57.638Z,6.35
2022-09-15T19:32:24.359Z,6.03
2022-09-15T19:34:50.982Z,5.55
2022-09-15T19:39:48.863Z,6.05
2022-09-15T19:44:47.928Z,5.47
2022-09-15T19:47:14.505Z,5.70
2022-09-15T19:49:41.082Z,5.82
2022-09-15T19:54:36.942Z,6.38
2022-09-15T19:57:03.964Z,5.55
2022-09-15T19:59:31.832Z,6.03
2022-09-15T20:01:59.610Z,5.75
2022-09-15T20:04:26.789Z,5.05
2022-09-15T20:06:53.331Z,5.78
2022-09-15T20:11:46.178Z,5.07
2022-09-15T20:14:13.563Z,5.70
2022-09-15T20:16:40.315Z,5.82
2022-09-15T20:19:06.875Z,5.90
2022-09-15T20:21:51.714Z,6.03
2022-09-15T20:24:19.981Z,5.78
2022-09-15T20:26:46.507Z,5.85
2022-09-15T20:31:40.287Z,6.23
2022-09-15T20:34:06.771Z,5.88
2022-09-15T20:36:36.491Z,6.53
2022-09-15T20:39:05.818Z,6.90
2022-09-15T20:41:32.429Z,6.63
2022-09-15T20:46:26.238Z,7.43
2022-09-15T20:48:53.247Z,7.25
2022-09-15T20:51:20.262Z,7.47
2022-09-15T20:53:49.713Z,7.45
2022-09-15T20:56:17.971Z,6.72
2022-09-15T20:58:44.432Z,8.13
2022-09-15T21:01:13.884Z,7.05
2022-09-15T21:03:42.274Z,7.22
2022-09-15T21:06:11.402Z,7.22
2022-09-15T21:08:37.853Z,8.20
2022-09-15T21:11:06.199Z,9.38
2022-09-15T21:13:37.566Z,8.40
2022-09-15T21:16:07.747Z,7.55
2022-09-15T21:18:38.213Z,7.32
2022-09-15T21:21:12.106Z,7.88
2022-09-15T21:23:40.802Z,7.97
2022-09-15T21:26:14.965Z,7.53
2022-09-15T21:28:43.520Z,7.20
2022-09-15T21:31:15.989Z,7.80
2022-09-15T21:33:43.167Z,9.55
2022-09-15T21:36:11.155Z,7.15
2022-09-15T21:38:41.217Z,7.07
2022-09-15T21:41:09.901Z,8.25
2022-09-15T21:43:39.274Z,7.15
2022-09-15T21:46:08.536Z,8.25
2022-09-15T21:48:35.826Z,7.95
2022-09-15T21:51:04.818Z,9.27
2022-09-15T21:53:32.398Z,7.72
2022-09-15T21:56:03.388Z,8.27
2022-09-15T21:58:38.955Z,7.80
2022-09-15T22:02:36.821Z,8.43
2022-09-15T22:05:03.464Z,8.30
2022-09-15T22:07:29.962Z,7.57
2022-09-15T22:09:56.482Z,8.25
2022-09-15T22:14:49.616Z,8.75
2022-09-15T22:19:43.342Z,9.32
2022-09-15T22:22:09.859Z,9.15
2022-09-15T22:24:36.419Z,10.18
2022-09-15T22:27:02.902Z,10.20
2022-09-15T22:29:29.457Z,8.63
2022-09-15T22:34:22.424Z,7.78
2022-09-15T22:36:49.048Z,7.90
2022-09-15T22:41:41.979Z,8.15
2022-09-15T22:46:42.799Z,9.27
2022-09-15T22:51:35.716Z,10.13
2022-09-15T22:54:02.957Z,8.48
2022-09-15T22:56:29.819Z,9.07
2022-09-15T22:58:56.480Z,8.95
2022-09-15T23:01:26.720Z,10.77
2022-09-15T23:03:55.678Z,10.38
2022-09-15T23:06:23.781Z,9.55
2022-09-15T23:09:02.056Z,8.32
2022-09-15T23:11:29.570Z,9.63
2022-09-15T23:13:56.282Z,9.63
2022-09-15T23:16:24.614Z,10.02
2022-09-15T23:18:51.580Z,9.35
2022-09-15T23:21:18.940Z,9.98
2022-09-15T23:23:47.932Z,9.75
2022-09-15T23:26:19.031Z,10.15
2022-09-15T23:28:45.881Z,10.02
2022-09-15T23:31:13.507Z,9.55
2022-09-15T23:33:41.374Z,10.02
2022-09-15T23:36:11.848Z,10.32
2022-09-15T23:38:44.152Z,10.10
2022-09-15T23:41:12.362Z,10.25
2022-09-15T23:43:38.892Z,11.30
2022-09-15T23:46:06.260Z,10.13
2022-09-15T23:48:32.872Z,11.40
2022-09-15T23:50:59.637Z,11.50
2022-09-15T23:55:52.719Z,11.23
2022-09-15T23:58:19.352Z,11.55
